sensor_id;sensor_type;location;lat;lon;timestamp;pressure;altitude;pressure_sealevel;temperature;humidity
54038;BME280;39954;48.844;9.726;2023-06-26T00:00:34;96080.94;;;15.21;100.00
54038;BME280;39954;48.844;9.726;2023-06-26T00:01:39;96086.16;;;15.21;100.00
54038;BME280;39954;48.844;9.726;2023-06-26T00:02:44;96075.09;;;15.18;100.00
54038;BME280;39954;48.844;9.726;2023-06-26T00:03:47;96085.56;;;15.18;100.00
54038;BME280;39954;48.844;9.726;2023-06-26T00:04:51;96085.78;;;15.15;100.00
54038;BME280;39954;48.844;9.726;2023-06-26T00:05:55;96078.66;;;15.17;100.00
54038;BME280;39954;48.844;9.726;2023-06-26T00:07:03;96084.84;;;15.16;100.00
54038;BME280;39954;48.844;9.726;2023-06-26T00:08:05;96081.41;;;15.15;100.00
54038;BME280;39954;48.844;9.726;2023-06-26T00:09:10;96083.38;;;15.12;100.00
54038;BME280;39954;48.844;9.726;2023-06-26T00:10:14;96084.34;;;15.11;100.00
54038;BME280;39954;48.844;9.726;2023-06-26T00:11:19;96079.34;;;15.08;100.00
54038;BME280;39954;48.844;9.726;2023-06-26T00:12:21;96077.66;;;15.07;100.00
54038;BME280;39954;48.844;9.726;2023-06-26T00:13:28;96077.06;;;15.03;100.00
54038;BME280;39954;48.844;9.726;2023-06-26T00:14:31;96081.47;;;15.03;100.00
54038;BME280;39954;48.844;9.726;2023-06-26T00:15:36;96076.34;;;15.01;100.00
54038;BME280;39954;48.844;9.726;2023-06-26T00:16:38;96080.66;;;15.02;100.00
54038;BME280;39954;48.844;9.726;2023-06-26T00:17:44;96080.75;;;15.00;100.00
54038;BME280;39954;48.844;9.726;2023-06-26T00:18:47;96070.41;;;14.99;100.00
54038;BME280;39954;48.844;9.726;2023-06-26T00:19:52;96078.13;;;15.00;100.00
54038;BME280;39954;48.844;9.726;2023-06-26T00:20:54;96070.41;;;14.99;100.00
54038;BME280;39954;48.844;9.726;2023-06-26T00:21:59;96077.28;;;15.00;100.00
54038;BME280;39954;48.844;9.726;2023-06-26T00:23:01;96074.81;;;14.98;100.00
54038;BME280;39954;48.844;9.726;2023-06-26T00:24:10;96079.19;;;14.98;100.00
54038;BME280;39954;48.844;9.726;2023-06-26T00:25:12;96072.28;;;14.97;100.00
54038;BME280;39954;48.844;9.726;2023-06-26T00:26:17;96078.50;;;14.96;100.00
54038;BME280;39954;48.844;9.726;2023-06-26T00:27:20;96064.53;;;14.95;100.00
54038;BME280;39954;48.844;9.726;2023-06-26T00:28:28;96068.84;;;14.96;100.00
54038;BME280;39954;48.844;9.726;2023-06-26T00:29:30;96077.53;;;14.97;100.00
54038;BME280;39954;48.844;9.726;2023-06-26T00:30:35;96068.94;;;14.95;100.00
54038;BME280;39954;48.844;9.726;2023-06-26T00:31:40;96070.50;;;14.97;100.00
54038;BME280;39954;48.844;9.726;2023-06-26T00:32:42;96079.66;;;14.92;100.00
54038;BME280;39954;48.844;9.726;2023-06-26T00:33:47;96080.84;;;14.88;100.00
54038;BME280;39954;48.844;9.726;2023-06-26T00:34:49;96080.00;;;14.87;100.00
54038;BME280;39954;48.844;9.726;2023-06-26T00:35:55;96083.44;;;14.88;100.00
54038;BME280;39954;48.844;9.726;2023-06-26T00:36:57;96078.22;;;14.88;100.00
54038;BME280;39954;48.844;9.726;2023-06-26T00:38:02;96085.34;;;14.86;100.00
54038;BME280;39954;48.844;9.726;2023-06-26T00:39:04;96082.22;;;14.81;100.00
54038;BME280;39954;48.844;9.726;2023-06-26T00:40:10;96076.25;;;14.78;100.00
54038;BME280;39954;48.844;9.726;2023-06-26T00:41:12;96083.28;;;14.78;100.00
54038;BME280;39954;48.844;9.726;2023-06-26T00:42:17;96086.84;;;14.77;100.00
54038;BME280;39954;48.844;9.726;2023-06-26T00:43:19;96083.28;;;14.78;100.00
54038;BME280;39954;48.844;9.726;2023-06-26T00:44:27;96081.50;;;14.78;100.00
54038;BME280;39954;48.844;9.726;2023-06-26T00:45:29;96085.81;;;14.80;100.00
54038;BME280;39954;48.844;9.726;2023-06-26T00:46:44;96085.91;;;14.78;100.00
54038;BME280;39954;48.844;9.726;2023-06-26T00:47:47;96084.47;;;14.74;100.00
54038;BME280;39954;48.844;9.726;2023-06-26T00:48:52;96089.78;;;14.72;100.00
54038;BME280;39954;48.844;9.726;2023-06-26T00:49:55;96086.47;;;14.70;100.00
54038;BME280;39954;48.844;9.726;2023-06-26T00:51:01;96090.16;;;14.68;100.00
54038;BME280;39954;48.844;9.726;2023-06-26T00:52:04;96085.16;;;14.65;100.00
54038;BME280;39954;48.844;9.726;2023-06-26T00:53:10;96091.31;;;14.64;100.00
54038;BME280;39954;48.844;9.726;2023-06-26T00:54:12;96086.06;;;14.64;100.00
54038;BME280;39954;48.844;9.726;2023-06-26T00:55:22;96089.97;;;14.58;100.00
54038;BME280;39954;48.844;9.726;2023-06-26T00:56:24;96087.34;;;14.58;100.00
54038;BME280;39954;48.844;9.726;2023-06-26T00:57:29;96086.63;;;14.56;100.00
54038;BME280;39954;48.844;9.726;2023-06-26T00:58:32;96088.41;;;14.55;100.00
54038;BME280;39954;48.844;9.726;2023-06-26T00:59:39;96087.59;;;14.55;100.00
54038;BME280;39954;48.844;9.726;2023-06-26T01:00:42;96081.63;;;14.53;100.00
54038;BME280;39954;48.844;9.726;2023-06-26T01:01:47;96081.72;;;14.51;100.00
54038;BME280;39954;48.844;9.726;2023-06-26T01:02:50;96077.53;;;14.49;100.00
54038;BME280;39954;48.844;9.726;2023-06-26T01:03:55;96078.59;;;14.46;100.00
54038;BME280;39954;48.844;9.726;2023-06-26T01:04:59;96079.44;;;14.47;100.00
54038;BME280;39954;48.844;9.726;2023-06-26T01:06:05;96073.38;;;14.46;100.00
54038;BME280;39954;48.844;9.726;2023-06-26T01:07:08;96073.38;;;14.46;100.00
54038;BME280;39954;48.844;9.726;2023-06-26T01:08:13;96081.22;;;14.46;100.00
54038;BME280;39954;48.844;9.726;2023-06-26T01:09:17;96071.72;;;14.45;100.00
54038;BME280;39954;48.844;9.726;2023-06-26T01:10:22;96075.97;;;14.46;100.00
54038;BME280;39954;48.844;9.726;2023-06-26T01:11:25;96074.31;;;14.45;100.00
54038;BME280;39954;48.844;9.726;2023-06-26T01:12:30;96077.63;;;14.47;100.00
54038;BME280;39954;48.844;9.726;2023-06-26T01:13:34;96075.25;;;14.44;100.00
54038;BME280;39954;48.844;9.726;2023-06-26T01:14:42;96073.38;;;14.46;100.00
54038;BME280;39954;48.844;9.726;2023-06-26T01:15:48;96077.03;;;14.44;100.00
54038;BME280;39954;48.844;9.726;2023-06-26T01:16:51;96077.13;;;14.42;100.00
54038;BME280;39954;48.844;9.726;2023-06-26T01:17:59;96068.38;;;14.43;100.00
54038;BME280;39954;48.844;9.726;2023-06-26T01:19:08;96074.41;;;14.44;100.00
54038;BME280;39954;48.844;9.726;2023-06-26T01:20:15;96071.06;;;14.42;100.00
54038;BME280;39954;48.844;9.726;2023-06-26T01:21:18;96072.03;;;14.41;100.00
54038;BME280;39954;48.844;9.726;2023-06-26T01:22:27;96071.91;;;14.42;100.00
54038;BME280;39954;48.844;9.726;2023-06-26T01:23:38;96066.69;;;14.42;100.00
54038;BME280;39954;48.844;9.726;2023-06-26T01:24:52;96067.75;;;14.40;100.00
54038;BME280;39954;48.844;9.726;2023-06-26T01:26:20;96066.06;;;14.39;100.00
54038;BME280;39954;48.844;9.726;2023-06-26T01:27:23;96061.91;;;14.36;100.00
54038;BME280;39954;48.844;9.726;2023-06-26T01:28:29;96063.81;;;14.34;100.00
54038;BME280;39954;48.844;9.726;2023-06-26T01:29:32;96066.53;;;14.32;100.00
54038;BME280;39954;48.844;9.726;2023-06-26T01:30:41;96060.34;;;14.33;100.00
54038;BME280;39954;48.844;9.726;2023-06-26T01:31:43;96058.78;;;14.31;100.00
54038;BME280;39954;48.844;9.726;2023-06-26T01:32:50;96057.34;;;14.27;100.00
54038;BME280;39954;48.844;9.726;2023-06-26T01:33:56;96055.91;;;14.23;100.00
54038;BME280;39954;48.844;9.726;2023-06-26T01:34:59;96057.78;;;14.21;100.00
54038;BME280;39954;48.844;9.726;2023-06-26T01:36:05;96051.94;;;14.17;100.00
54038;BME280;39954;48.844;9.726;2023-06-26T01:37:07;96051.22;;;14.15;100.00
54038;BME280;39954;48.844;9.726;2023-06-26T01:38:13;96042.66;;;14.13;100.00
54038;BME280;39954;48.844;9.726;2023-06-26T01:39:18;96048.72;;;14.14;100.00
54038;BME280;39954;48.844;9.726;2023-06-26T01:40:23;96046.09;;;14.14;100.00
54038;BME280;39954;48.844;9.726;2023-06-26T01:41:28;96047.66;;;14.16;100.00
54038;BME280;39954;48.844;9.726;2023-06-26T01:42:33;96048.72;;;14.14;100.00
54038;BME280;39954;48.844;9.726;2023-06-26T01:43:54;96049.66;;;14.13;100.00
54038;BME280;39954;48.844;9.726;2023-06-26T01:45:06;96042.78;;;14.12;100.00
54038;BME280;39954;48.844;9.726;2023-06-26T01:46:19;96051.53;;;14.10;100.00
54038;BME280;39954;48.844;9.726;2023-06-26T01:47:27;96045.47;;;14.10;100.00
54038;BME280;39954;48.844;9.726;2023-06-26T01:48:36;96051.53;;;14.10;100.00
54038;BME280;39954;48.844;9.726;2023-06-26T01:49:46;96047.28;;;14.09;100.00
54038;BME280;39954;48.844;9.726;2023-06-26T01:50:52;96050.72;;;14.10;100.00
54038;BME280;39954;48.844;9.726;2023-06-26T01:52:00;96050.09;;;14.06;100.00
54038;BME280;39954;48.844;9.726;2023-06-26T01:53:10;96050.19;;;14.05;100.00
54038;BME280;39954;48.844;9.726;2023-06-26T01:54:18;96051.97;;;14.04;100.00
54038;BME280;39954;48.844;9.726;2023-06-26T01:55:31;96043.91;;;14.07;100.00
54038;BME280;39954;48.844;9.726;2023-06-26T01:56:42;96043.81;;;14.09;100.00
54038;BME280;39954;48.844;9.726;2023-06-26T01:57:47;96042.88;;;14.10;100.00
54038;BME280;39954;48.844;9.726;2023-06-26T01:58:54;96051.53;;;14.10;100.00
54038;BME280;39954;48.844;9.726;2023-06-26T01:59:57;96047.28;;;14.09;100.00
54038;BME280;39954;48.844;9.726;2023-06-26T02:01:03;96046.44;;;14.09;100.00
54038;BME280;39954;48.844;9.726;2023-06-26T02:02:07;96047.38;;;14.08;100.00
54038;BME280;39954;48.844;9.726;2023-06-26T02:03:12;96041.22;;;14.09;100.00
54038;BME280;39954;48.844;9.726;2023-06-26T02:04:14;96044.88;;;14.06;100.00
54038;BME280;39954;48.844;9.726;2023-06-26T02:05:19;96047.59;;;14.05;100.00
54038;BME280;39954;48.844;9.726;2023-06-26T02:06:21;96044.25;;;14.03;100.00
54038;BME280;39954;48.844;9.726;2023-06-26T02:07:26;96045.19;;;14.02;100.00
54038;BME280;39954;48.844;9.726;2023-06-26T02:08:29;96049.59;;;14.01;100.00
54038;BME280;39954;48.844;9.726;2023-06-26T02:09:34;96044.47;;;14.00;100.00
54038;BME280;39954;48.844;9.726;2023-06-26T02:10:36;96048.03;;;13.99;100.00
54038;BME280;39954;48.844;9.726;2023-06-26T02:11:44;96043.84;;;13.96;100.00
54038;BME280;39954;48.844;9.726;2023-06-26T02:12:46;96043.84;;;13.96;100.00
54038;BME280;39954;48.844;9.726;2023-06-26T02:13:51;96043.75;;;13.98;100.00
54038;BME280;39954;48.844;9.726;2023-06-26T02:14:53;96047.19;;;13.98;100.00
54038;BME280;39954;48.844;9.726;2023-06-26T02:15:58;96045.50;;;13.97;100.00
54038;BME280;39954;48.844;9.726;2023-06-26T02:17:01;96045.50;;;13.97;100.00
54038;BME280;39954;48.844;9.726;2023-06-26T02:18:05;96049.06;;;13.96;100.00
54038;BME280;39954;48.844;9.726;2023-06-26T02:19:10;96043.94;;;13.95;100.00
54038;BME280;39954;48.844;9.726;2023-06-26T02:20:12;96044.06;;;13.93;100.00
54038;BME280;39954;48.844;9.726;2023-06-26T02:21:17;96044.06;;;13.93;100.00
54038;BME280;39954;48.844;9.726;2023-06-26T02:22:20;96045.94;;;13.91;100.00
54038;BME280;39954;48.844;9.726;2023-06-26T02:23:24;96039.28;;;13.87;100.00
54038;BME280;39954;48.844;9.726;2023-06-26T02:24:27;96038.47;;;13.86;100.00
54038;BME280;39954;48.844;9.726;2023-06-26T02:25:32;96042.00;;;13.85;100.00
54038;BME280;39954;48.844;9.726;2023-06-26T02:26:34;96041.16;;;13.85;100.00
54038;BME280;39954;48.844;9.726;2023-06-26T02:27:41;96035.72;;;13.88;100.00
54038;BME280;39954;48.844;9.726;2023-06-26T02:28:44;96041.91;;;13.87;100.00
54038;BME280;39954;48.844;9.726;2023-06-26T02:29:49;96037.72;;;13.84;100.00
54038;BME280;39954;48.844;9.726;2023-06-26T02:30:51;96047.22;;;13.85;100.00
54038;BME280;39954;48.844;9.726;2023-06-26T02:31:56;96041.25;;;13.83;100.00
54038;BME280;39954;48.844;9.726;2023-06-26T02:32:58;96043.88;;;13.83;100.00
54038;BME280;39954;48.844;9.726;2023-06-26T02:34:03;96040.56;;;13.81;100.00
54038;BME280;39954;48.844;9.726;2023-06-26T02:35:07;96037.94;;;13.81;100.00
54038;BME280;39954;48.844;9.726;2023-06-26T02:36:12;96046.69;;;13.80;100.00
54038;BME280;39954;48.844;9.726;2023-06-26T02:37:14;96046.09;;;13.77;100.00
54038;BME280;39954;48.844;9.726;2023-06-26T02:38:19;96045.34;;;13.75;100.00
54038;BME280;39954;48.844;9.726;2023-06-26T02:39:21;96045.34;;;13.75;100.00
54038;BME280;39954;48.844;9.726;2023-06-26T02:40:26;96043.69;;;13.74;100.00
54038;BME280;39954;48.844;9.726;2023-06-26T02:41:28;96040.25;;;13.73;100.00
54038;BME280;39954;48.844;9.726;2023-06-26T02:42:34;96040.34;;;13.72;100.00
54038;BME280;39954;48.844;9.726;2023-06-26T02:43:39;96038.69;;;13.71;100.00
54038;BME280;39954;48.844;9.726;2023-06-26T02:44:44;96044.88;;;13.70;100.00
54038;BME280;39954;48.844;9.726;2023-06-26T02:45:46;96044.88;;;13.70;100.00
54038;BME280;39954;48.844;9.726;2023-06-26T02:46:51;96046.63;;;13.69;100.00
54038;BME280;39954;48.844;9.726;2023-06-26T02:47:54;96046.00;;;13.65;100.00
54038;BME280;39954;48.844;9.726;2023-06-26T02:48:59;96046.97;;;13.64;100.00
54038;BME280;39954;48.844;9.726;2023-06-26T02:50:01;96045.41;;;13.62;100.00
54038;BME280;39954;48.844;9.726;2023-06-26T02:51:07;96044.56;;;13.61;100.00
54038;BME280;39954;48.844;9.726;2023-06-26T02:52:09;96037.88;;;13.57;100.00
54038;BME280;39954;48.844;9.726;2023-06-26T02:53:14;96045.69;;;13.57;100.00
54038;BME280;39954;48.844;9.726;2023-06-26T02:54:17;96039.75;;;13.55;100.00
54038;BME280;39954;48.844;9.726;2023-06-26T02:55:22;96045.19;;;13.52;100.00
54038;BME280;39954;48.844;9.726;2023-06-26T02:56:25;96038.22;;;13.53;100.00
54038;BME280;39954;48.844;9.726;2023-06-26T02:57:30;96040.91;;;13.51;100.00
54038;BME280;39954;48.844;9.726;2023-06-26T02:58:32;96036.72;;;13.49;100.00
54038;BME280;39954;48.844;9.726;2023-06-26T02:59:40;96035.78;;;13.50;100.00
54038;BME280;39954;48.844;9.726;2023-06-26T03:00:42;96035.78;;;13.50;100.00
54038;BME280;39954;48.844;9.726;2023-06-26T03:01:47;96043.53;;;13.51;100.00
54038;BME280;39954;48.844;9.726;2023-06-26T03:02:49;96036.63;;;13.50;100.00
54038;BME280;39954;48.844;9.726;2023-06-26T03:03:54;96041.88;;;13.50;100.00
54038;BME280;39954;48.844;9.726;2023-06-26T03:04:56;96034.13;;;13.49;100.00
54038;BME280;39954;48.844;9.726;2023-06-26T03:06:02;96033.38;;;13.47;100.00
54038;BME280;39954;48.844;9.726;2023-06-26T03:07:04;96032.56;;;13.46;100.00
54038;BME280;39954;48.844;9.726;2023-06-26T03:08:09;96040.38;;;13.46;100.00
54038;BME280;39954;48.844;9.726;2023-06-26T03:09:13;96029.94;;;13.46;100.00
54038;BME280;39954;48.844;9.726;2023-06-26T03:10:18;96042.91;;;13.48;100.00
54038;BME280;39954;48.844;9.726;2023-06-26T03:11:21;96032.69;;;13.45;100.00
54038;BME280;39954;48.844;9.726;2023-06-26T03:12:25;96034.44;;;13.44;100.00
54038;BME280;39954;48.844;9.726;2023-06-26T03:13:28;96027.56;;;13.43;100.00
54038;BME280;39954;48.844;9.726;2023-06-26T03:14:32;96033.59;;;13.43;100.00
54038;BME280;39954;48.844;9.726;2023-06-26T03:15:37;96026.72;;;13.42;100.00
54038;BME280;39954;48.844;9.726;2023-06-26T03:16:42;96024.13;;;13.42;100.00
54038;BME280;39954;48.844;9.726;2023-06-26T03:17:45;96032.91;;;13.41;100.00
54038;BME280;39954;48.844;9.726;2023-06-26T03:18:50;96031.13;;;13.42;100.00
54038;BME280;39954;48.844;9.726;2023-06-26T03:19:52;96030.28;;;13.41;100.00
54038;BME280;39954;48.844;9.726;2023-06-26T03:20:57;96033.72;;;13.42;100.00
54038;BME280;39954;48.844;9.726;2023-06-26T03:22:00;96034.66;;;13.41;100.00
54038;BME280;39954;48.844;9.726;2023-06-26T03:23:05;96026.81;;;13.41;100.00
54038;BME280;39954;48.844;9.726;2023-06-26T03:24:08;96031.22;;;13.40;100.00
54038;BME280;39954;48.844;9.726;2023-06-26T03:25:12;96028.50;;;13.42;100.00
54038;BME280;39954;48.844;9.726;2023-06-26T03:26:15;96032.03;;;13.41;100.00
54038;BME280;39954;48.844;9.726;2023-06-26T03:27:19;96039.78;;;13.42;100.00
54038;BME280;39954;48.844;9.726;2023-06-26T03:28:22;96028.59;;;13.40;100.00
54038;BME280;39954;48.844;9.726;2023-06-26T03:29:26;96038.94;;;13.42;100.00
54038;BME280;39954;48.844;9.726;2023-06-26T03:30:29;96040.59;;;13.43;100.00
54038;BME280;39954;48.844;9.726;2023-06-26T03:31:36;96034.44;;;13.44;100.00
54038;BME280;39954;48.844;9.726;2023-06-26T03:32:39;96038.72;;;13.45;100.00
54038;BME280;39954;48.844;9.726;2023-06-26T03:33:43;96037.69;;;13.48;100.00
54038;BME280;39954;48.844;9.726;2023-06-26T03:34:46;96041.13;;;13.48;100.00
54038;BME280;39954;48.844;9.726;2023-06-26T03:35:51;96034.94;;;13.49;100.00
54038;BME280;39954;48.844;9.726;2023-06-26T03:36:53;96034.03;;;13.50;100.00
54038;BME280;39954;48.844;9.726;2023-06-26T03:37:58;96036.44;;;13.53;100.00
54038;BME280;39954;48.844;9.726;2023-06-26T03:39:00;96044.97;;;13.55;100.00
54038;BME280;39954;48.844;9.726;2023-06-26T03:40:07;96031.91;;;13.55;100.00
54038;BME280;39954;48.844;9.726;2023-06-26T03:41:09;96037.78;;;13.59;100.00
54038;BME280;39954;48.844;9.726;2023-06-26T03:42:14;96036.81;;;13.60;100.00
54038;BME280;39954;48.844;9.726;2023-06-26T03:43:17;96039.44;;;13.60;100.00
54038;BME280;39954;48.844;9.726;2023-06-26T03:44:22;96036.81;;;13.60;100.00
54038;BME280;39954;48.844;9.726;2023-06-26T03:45:24;96031.59;;;13.60;100.00
54038;BME280;39954;48.844;9.726;2023-06-26T03:46:29;96037.66;;;13.60;100.00
54038;BME280;39954;48.844;9.726;2023-06-26T03:47:34;96040.19;;;13.62;100.00
54038;BME280;39954;48.844;9.726;2023-06-26T03:48:39;96046.22;;;13.62;100.00
54038;BME280;39954;48.844;9.726;2023-06-26T03:49:41;96035.78;;;13.62;100.00
54038;BME280;39954;48.844;9.726;2023-06-26T03:50:46;96032.44;;;13.60;100.00
54038;BME280;39954;48.844;9.726;2023-06-26T03:51:49;96038.38;;;13.62;100.00
54038;BME280;39954;48.844;9.726;2023-06-26T03:52:54;96032.34;;;13.62;100.00
54038;BME280;39954;48.844;9.726;2023-06-26T03:53:56;96036.59;;;13.63;100.00
54038;BME280;39954;48.844;9.726;2023-06-26T03:55:01;96032.84;;;13.67;100.00
54038;BME280;39954;48.844;9.726;2023-06-26T03:56:04;96047.47;;;13.70;100.00
54038;BME280;39954;48.844;9.726;2023-06-26T03:57:09;96041.53;;;13.68;100.00
54038;BME280;39954;48.844;9.726;2023-06-26T03:58:11;96047.34;;;13.71;100.00
54038;BME280;39954;48.844;9.726;2023-06-26T03:59:16;96041.19;;;13.72;100.00
54038;BME280;39954;48.844;9.726;2023-06-26T04:00:19;96036.81;;;13.73;100.00
54038;BME280;39954;48.844;9.726;2023-06-26T04:01:24;96036.59;;;13.76;100.00
54038;BME280;39954;48.844;9.726;2023-06-26T04:02:26;96047.88;;;13.76;100.00
54038;BME280;39954;48.844;9.726;2023-06-26T04:03:33;96045.03;;;13.79;100.00
54038;BME280;39954;48.844;9.726;2023-06-26T04:04:36;96044.94;;;13.81;100.00
54038;BME280;39954;48.844;9.726;2023-06-26T04:05:41;96041.16;;;13.85;100.00
54038;BME280;39954;48.844;9.726;2023-06-26T04:06:45;96045.44;;;13.86;100.00
54038;BME280;39954;48.844;9.726;2023-06-26T04:07:50;96053.06;;;13.89;100.00
54038;BME280;39954;48.844;9.726;2023-06-26T04:08:54;96051.19;;;13.91;100.00
54038;BME280;39954;48.844;9.726;2023-06-26T04:09:57;96050.03;;;13.95;100.00
54038;BME280;39954;48.844;9.726;2023-06-26T04:11:01;96051.69;;;13.96;100.00
54038;BME280;39954;48.844;9.726;2023-06-26T04:12:05;96044.59;;;13.98;100.00
54038;BME280;39954;48.844;9.726;2023-06-26T04:13:10;96046.97;;;14.01;100.00
54038;BME280;39954;48.844;9.726;2023-06-26T04:14:12;96048.41;;;14.05;100.00
54038;BME280;39954;48.844;9.726;2023-06-26T04:15:17;96053.41;;;14.08;100.00
54038;BME280;39954;48.844;9.726;2023-06-26T04:16:21;96063.47;;;14.15;100.00
54038;BME280;39954;48.844;9.726;2023-06-26T04:17:27;96055.50;;;14.16;100.00
54038;BME280;39954;48.844;9.726;2023-06-26T04:18:29;96060.41;;;14.21;100.00
54038;BME280;39954;48.844;9.726;2023-06-26T04:19:36;96055.78;;;14.24;100.00
54038;BME280;39954;48.844;9.726;2023-06-26T04:20:39;96060.69;;;14.29;100.00
54038;BME280;39954;48.844;9.726;2023-06-26T04:21:46;96063.06;;;14.32;100.00
54038;BME280;39954;48.844;9.726;2023-06-26T04:22:51;96060.97;;;14.37;100.00
54038;BME280;39954;48.844;9.726;2023-06-26T04:23:53;96059.91;;;14.40;100.00
54038;BME280;39954;48.844;9.726;2023-06-26T04:25:00;96055.38;;;14.42;100.00
54038;BME280;39954;48.844;9.726;2023-06-26T04:26:03;96063.00;;;14.45;100.00
54038;BME280;39954;48.844;9.726;2023-06-26T04:27:08;96064.47;;;14.49;100.00
54038;BME280;39954;48.844;9.726;2023-06-26T04:28:11;96063.41;;;14.51;100.00
54038;BME280;39954;48.844;9.726;2023-06-26T04:29:15;96063.94;;;14.57;100.00
54038;BME280;39954;48.844;9.726;2023-06-26T04:30:18;96075.84;;;14.61;100.00
54038;BME280;39954;48.844;9.726;2023-06-26T04:31:23;96065.06;;;14.65;100.00
54038;BME280;39954;48.844;9.726;2023-06-26T04:32:25;96071.63;;;14.71;100.00
54038;BME280;39954;48.844;9.726;2023-06-26T04:33:30;96058.91;;;14.77;100.00
54038;BME280;39954;48.844;9.726;2023-06-26T04:34:32;96070.47;;;14.86;100.00
54038;BME280;39954;48.844;9.726;2023-06-26T04:35:40;96063.13;;;14.91;100.00
54038;BME280;39954;48.844;9.726;2023-06-26T04:36:42;96059.44;;;15.40;100.00
54038;BME280;39954;48.844;9.726;2023-06-26T04:37:49;96067.59;;;15.71;100.00
54038;BME280;39954;48.844;9.726;2023-06-26T04:38:51;96054.81;;;15.78;100.00
54038;BME280;39954;48.844;9.726;2023-06-26T04:39:57;96053.75;;;15.92;100.00
54038;BME280;39954;48.844;9.726;2023-06-26T04:40:59;96058.41;;;15.99;100.00
54038;BME280;39954;48.844;9.726;2023-06-26T04:42:05;96058.69;;;16.28;95.47
54038;BME280;39954;48.844;9.726;2023-06-26T04:43:08;96050.47;;;16.33;94.83
54038;BME280;39954;48.844;9.726;2023-06-26T04:44:13;96054.09;;;16.53;92.48
54038;BME280;39954;48.844;9.726;2023-06-26T04:45:15;96051.94;;;16.58;92.74
54038;BME280;39954;48.844;9.726;2023-06-26T04:46:20;96050.91;;;16.70;90.62
54038;BME280;39954;48.844;9.726;2023-06-26T04:47:23;96048.66;;;16.77;88.92
54038;BME280;39954;48.844;9.726;2023-06-26T04:48:28;96052.44;;;16.84;86.41
54038;BME280;39954;48.844;9.726;2023-06-26T04:49:30;96047.72;;;16.99;83.55
54038;BME280;39954;48.844;9.726;2023-06-26T04:50:41;96045.22;;;17.18;82.79
54038;BME280;39954;48.844;9.726;2023-06-26T04:51:44;96052.97;;;17.20;81.61
54038;BME280;39954;48.844;9.726;2023-06-26T04:52:50;96048.28;;;17.23;81.11
54038;BME280;39954;48.844;9.726;2023-06-26T04:53:52;96053.53;;;17.23;82.44
54038;BME280;39954;48.844;9.726;2023-06-26T04:54:57;96051.09;;;17.32;80.57
54038;BME280;39954;48.844;9.726;2023-06-26T04:55:59;96047.97;;;17.38;80.62
54038;BME280;39954;48.844;9.726;2023-06-26T04:57:05;96051.16;;;17.41;80.01
54038;BME280;39954;48.844;9.726;2023-06-26T04:58:07;96044.53;;;17.47;78.77
54038;BME280;39954;48.844;9.726;2023-06-26T04:59:12;96050.38;;;17.51;79.02
54038;BME280;39954;48.844;9.726;2023-06-26T05:00:16;96044.06;;;17.63;78.02
54038;BME280;39954;48.844;9.726;2023-06-26T05:01:21;96046.31;;;17.67;78.55
54038;BME280;39954;48.844;9.726;2023-06-26T05:02:23;96042.44;;;17.72;77.77
54038;BME280;39954;48.844;9.726;2023-06-26T05:03:28;96047.59;;;17.73;79.14
54038;BME280;39954;48.844;9.726;2023-06-26T05:04:31;96046.34;;;17.77;78.20
54038;BME280;39954;48.844;9.726;2023-06-26T05:05:36;96049.56;;;17.81;78.52
54038;BME280;39954;48.844;9.726;2023-06-26T05:06:41;96048.63;;;17.82;80.39
54038;BME280;39954;48.844;9.726;2023-06-26T05:07:45;96049.56;;;17.81;80.62
54038;BME280;39954;48.844;9.726;2023-06-26T05:08:48;96052.19;;;17.81;81.32
54038;BME280;39954;48.844;9.726;2023-06-26T05:09:52;96047.78;;;17.81;82.36
54038;BME280;39954;48.844;9.726;2023-06-26T05:10:55;96046.66;;;17.84;81.89
54038;BME280;39954;48.844;9.726;2023-06-26T05:12:02;96049.06;;;17.87;81.55
54038;BME280;39954;48.844;9.726;2023-06-26T05:13:04;96041.84;;;17.89;81.22
54038;BME280;39954;48.844;9.726;2023-06-26T05:14:09;96041.47;;;17.94;81.72
54038;BME280;39954;48.844;9.726;2023-06-26T05:15:11;96040.38;;;17.96;81.28
54038;BME280;39954;48.844;9.726;2023-06-26T05:16:16;96044.97;;;18.04;79.76
54038;BME280;39954;48.844;9.726;2023-06-26T05:17:18;96041.91;;;18.08;79.94
54038;BME280;39954;48.844;9.726;2023-06-26T05:18:23;96045.94;;;18.13;80.00
54038;BME280;39954;48.844;9.726;2023-06-26T05:19:25;96038.50;;;18.18;79.36
54038;BME280;39954;48.844;9.726;2023-06-26T05:20:31;96040.56;;;18.24;78.81
54038;BME280;39954;48.844;9.726;2023-06-26T05:21:34;96041.25;;;18.26;79.80
54038;BME280;39954;48.844;9.726;2023-06-26T05:22:42;96049.03;;;18.27;81.22
54038;BME280;39954;48.844;9.726;2023-06-26T05:23:45;96048.50;;;18.43;77.44
54038;BME280;39954;48.844;9.726;2023-06-26T05:24:53;96046.81;;;18.42;80.28
54038;BME280;39954;48.844;9.726;2023-06-26T05:25:57;96046.28;;;18.48;76.51
54038;BME280;39954;48.844;9.726;2023-06-26T05:27:02;96050.72;;;18.58;74.61
54038;BME280;39954;48.844;9.726;2023-06-26T05:28:06;96042.28;;;18.64;76.60
54038;BME280;39954;48.844;9.726;2023-06-26T05:29:16;96045.75;;;18.64;75.70
54038;BME280;39954;48.844;9.726;2023-06-26T05:30:20;96042.97;;;18.66;77.68
54038;BME280;39954;48.844;9.726;2023-06-26T05:31:27;96042.00;;;18.67;79.61
54038;BME280;39954;48.844;9.726;2023-06-26T05:32:30;96049.06;;;18.66;78.29
54038;BME280;39954;48.844;9.726;2023-06-26T05:33:39;96047.69;;;18.72;75.50
54038;BME280;39954;48.844;9.726;2023-06-26T05:34:47;96042.88;;;18.77;78.57
54038;BME280;39954;48.844;9.726;2023-06-26T05:35:53;96042.31;;;18.83;76.55
54038;BME280;39954;48.844;9.726;2023-06-26T05:36:57;96039.28;;;18.88;77.31
54038;BME280;39954;48.844;9.726;2023-06-26T05:38:05;96044.38;;;18.89;75.83
54038;BME280;39954;48.844;9.726;2023-06-26T05:39:09;96043.16;;;18.93;76.72